Hetzleser Berg Airport


Codes: EDQX/
Name: Hetzleser Berg Airport
City: Neunkirchen am Brand
Country: Germany
Elevation: 1765 ft.

Photos at Hetzleser Berg Airport


   Photos courtesy of SpottingLog. You can add your own sightings and photos by signing up for a free trial today.



No photos found.

Weather at Hetzleser Berg Airport


Time (UTC)DescriptionTempratureWindCloud coverageVisibilityPressureHumidity
19-Apr-2024 03:00Clear Sky3°C4 mph, SW0%10000m1016hPa87%
19-Apr-2024 06:00Light Rain3°C11 mph, SW33%7131m1016hPa89%
19-Apr-2024 09:00Light Rain3°C13 mph, SW67%162m1014hPa94%
19-Apr-2024 12:00Moderate Rain2°C16 mph, SW100%95m1009hPa98%
19-Apr-2024 15:00Moderate Rain2°C16 mph, W100%73m1007hPa98%
19-Apr-2024 18:00Light Rain3°C13 mph, W100%235m1006hPa98%
19-Apr-2024 21:00Light Rain3°C11 mph, W98%10000m1009hPa96%
20-Apr-2024 00:00Light Snow2°C11 mph, W97%10000m1010hPa93%
20-Apr-2024 03:00Snow1°C13 mph, W100%29m1011hPa98%
20-Apr-2024 06:00Snow1°C11 mph, N100%0m1014hPa98%
20-Apr-2024 09:00Light Snow3°C11 mph, NW100%1802m1017hPa92%
20-Apr-2024 12:00Light Rain5°C9 mph, N95%1520m1019hPa73%
20-Apr-2024 15:00Light Rain5°C7 mph, N99%10000m1019hPa74%
20-Apr-2024 18:00Light Snow2°C4 mph, NE95%10000m1021hPa85%
20-Apr-2024 21:00Overcast Clouds-0°C2 mph, E100%10000m1023hPa89%
21-Apr-2024 00:00Overcast Clouds-1°C2 mph, NE99%10000m1023hPa88%
21-Apr-2024 03:00Broken Clouds-2°C4 mph, E62%10000m1024hPa91%
21-Apr-2024 06:00Broken Clouds0°C2 mph, NE58%10000m1025hPa80%
21-Apr-2024 09:00Few Clouds5°C7 mph, NE21%10000m1024hPa51%
21-Apr-2024 12:00Broken Clouds7°C9 mph, NE53%10000m1024hPa38%
21-Apr-2024 15:00Overcast Clouds7°C9 mph, NE98%10000m1023hPa41%
21-Apr-2024 18:00Broken Clouds2°C7 mph, NE65%10000m1024hPa69%
21-Apr-2024 21:00Clear Sky-1°C4 mph, NE0%10000m1026hPa82%
22-Apr-2024 00:00Clear Sky-2°C2 mph, E4%10000m1026hPa83%
22-Apr-2024 03:00Few Clouds-3°C2 mph, NE11%10000m1025hPa85%
22-Apr-2024 06:00Clear Sky1°C2 mph, NE10%10000m1025hPa67%
22-Apr-2024 09:00Few Clouds7°C2 mph, NW13%10000m1023hPa48%
22-Apr-2024 12:00Light Rain8°C0 mph, NW47%10000m1022hPa46%
22-Apr-2024 15:00Light Rain7°C4 mph, N92%8097m1020hPa60%
22-Apr-2024 18:00Light Rain3°C4 mph, NE94%10000m1021hPa86%
22-Apr-2024 21:00Light Rain1°C7 mph, E98%10000m1022hPa96%
23-Apr-2024 00:00Broken Clouds-1°C4 mph, E72%10000m1021hPa92%
23-Apr-2024 03:00Broken Clouds-2°C4 mph, E58%10000m1020hPa91%
23-Apr-2024 06:00Broken Clouds1°C4 mph, E80%10000m1019hPa81%
23-Apr-2024 09:00Overcast Clouds7°C9 mph, E99%10000m1017hPa49%
23-Apr-2024 12:00Broken Clouds9°C9 mph, E76%10000m1015hPa37%
23-Apr-2024 15:00Overcast Clouds10°C11 mph, E100%10000m1013hPa39%
23-Apr-2024 18:00Overcast Clouds5°C7 mph, NE86%10000m1013hPa61%
23-Apr-2024 21:00Few Clouds2°C7 mph, NE15%10000m1015hPa77%
24-Apr-2024 00:00Few Clouds-0°C4 mph, NE12%10000m1014hPa81%